LLMR weather

Mitzpe Ramon Airfield
Mitzpe Ramon, Southern District, Israel

Public forecast

Using degrees Celsius for public forecast. Weather courtesy of forecast.io.

METAR (pilot weather report)

Closest report is Ovda International Airport, 43.2 nm (79.9 km) S. Retrieved 2019/03/24 14:50 UTC (14 minutes ago):

LLOV 241450Z 32016KT CAVOK 18/03 Q1004 RMK SCT060 BKN090

TAF (pilot weather forecast)

Forecast is more than 12 hours old.

Closest forecast is El Gora Airport, 43.0 nm (79.6 km) NW. Retrieved 2018/10/31 07:00 UTC (5 months ago):

TAF HEGR 310700Z 3107/0112 34009KT 9999 SCT020 BECMG 3119/3121 VRB03KT CAVOK BECMG 0107/0109 36008KT